sensor_id;sensor_type;location;lat;lon;timestamp;P1;durP1;ratioP1;P2;durP2;ratioP2
75413;SDS011;64758;52.122;5.404;2024-03-23T00:55:40;16.03;;;6.00;;
75413;SDS011;64758;52.122;5.404;2024-03-23T00:58:06;15.23;;;5.35;;
75413;SDS011;64758;52.122;5.404;2024-03-23T01:00:32;19.98;;;6.68;;
75413;SDS011;64758;52.122;5.404;2024-03-23T01:02:58;18.53;;;6.53;;
75413;SDS011;64758;52.122;5.404;2024-03-23T01:05:24;15.85;;;5.97;;
75413;SDS011;64758;52.122;5.404;2024-03-23T01:07:49;19.63;;;6.17;;
75413;SDS011;64758;52.122;5.404;2024-03-23T01:10:15;21.85;;;6.45;;
75413;SDS011;64758;52.122;5.404;2024-03-23T01:12:40;14.20;;;5.50;;
75413;SDS011;64758;52.122;5.404;2024-03-23T01:15:06;21.67;;;6.30;;
75413;SDS011;64758;52.122;5.404;2024-03-23T01:17:32;21.92;;;6.28;;
75413;SDS011;64758;52.122;5.404;2024-03-23T01:19:58;24.03;;;6.77;;
75413;SDS011;64758;52.122;5.404;2024-03-23T01:22:23;13.25;;;5.65;;
75413;SDS011;64758;52.122;5.404;2024-03-23T01:24:49;16.30;;;5.93;;
75413;SDS011;64758;52.122;5.404;2024-03-23T01:27:14;20.85;;;6.57;;
75413;SDS011;64758;52.122;5.404;2024-03-23T01:29:40;22.00;;;6.00;;
75413;SDS011;64758;52.122;5.404;2024-03-23T01:32:06;16.27;;;6.03;;
75413;SDS011;64758;52.122;5.404;2024-03-23T01:34:32;21.30;;;6.22;;
75413;SDS011;64758;52.122;5.404;2024-03-23T01:36:57;17.30;;;5.65;;
75413;SDS011;64758;52.122;5.404;2024-03-23T01:39:24;16.92;;;6.00;;
75413;SDS011;64758;52.122;5.404;2024-03-23T01:41:50;17.38;;;6.50;;
75413;SDS011;64758;52.122;5.404;2024-03-23T01:44:16;19.90;;;6.97;;
75413;SDS011;64758;52.122;5.404;2024-03-23T01:46:42;15.80;;;6.00;;
75413;SDS011;64758;52.122;5.404;2024-03-23T01:49:10;19.35;;;6.78;;
75413;SDS011;64758;52.122;5.404;2024-03-23T01:51:36;15.07;;;6.27;;
75413;SDS011;64758;52.122;5.404;2024-03-23T01:54:02;16.45;;;5.88;;
75413;SDS011;64758;52.122;5.404;2024-03-23T01:56:32;20.88;;;6.50;;
75413;SDS011;64758;52.122;5.404;2024-03-23T01:59:02;23.88;;;6.53;;
75413;SDS011;64758;52.122;5.404;2024-03-23T02:01:31;18.85;;;6.13;;
75413;SDS011;64758;52.122;5.404;2024-03-23T02:03:57;16.58;;;6.05;;
75413;SDS011;64758;52.122;5.404;2024-03-23T02:06:26;22.17;;;6.38;;
75413;SDS011;64758;52.122;5.404;2024-03-23T02:08:53;21.40;;;5.97;;
75413;SDS011;64758;52.122;5.404;2024-03-23T02:11:19;17.73;;;5.40;;
75413;SDS011;64758;52.122;5.404;2024-03-23T02:13:45;13.20;;;5.77;;
75413;SDS011;64758;52.122;5.404;2024-03-23T02:16:11;14.50;;;5.82;;
75413;SDS011;64758;52.122;5.404;2024-03-23T02:18:36;13.77;;;5.30;;
75413;SDS011;64758;52.122;5.404;2024-03-23T02:21:02;18.52;;;5.72;;
75413;SDS011;64758;52.122;5.404;2024-03-23T02:23:28;12.97;;;5.03;;
75413;SDS011;64758;52.122;5.404;2024-03-23T02:25:53;11.35;;;5.60;;
75413;SDS011;64758;52.122;5.404;2024-03-23T02:28:19;14.17;;;5.70;;
75413;SDS011;64758;52.122;5.404;2024-03-23T02:30:45;12.32;;;5.20;;
75413;SDS011;64758;52.122;5.404;2024-03-23T02:33:11;20.45;;;5.88;;
75413;SDS011;64758;52.122;5.404;2024-03-23T02:35:37;18.13;;;6.10;;
75413;SDS011;64758;52.122;5.404;2024-03-23T02:38:02;16.90;;;5.90;;
75413;SDS011;64758;52.122;5.404;2024-03-23T02:40:28;17.73;;;5.55;;
75413;SDS011;64758;52.122;5.404;2024-03-23T02:42:54;15.77;;;5.85;;
75413;SDS011;64758;52.122;5.404;2024-03-23T02:45:20;13.07;;;5.53;;
75413;SDS011;64758;52.122;5.404;2024-03-23T02:47:46;13.38;;;5.40;;
75413;SDS011;64758;52.122;5.404;2024-03-23T02:50:11;17.93;;;5.60;;
75413;SDS011;64758;52.122;5.404;2024-03-23T02:52:37;12.90;;;5.13;;
75413;SDS011;64758;52.122;5.404;2024-03-23T02:55:03;15.77;;;5.00;;
75413;SDS011;64758;52.122;5.404;2024-03-23T02:57:29;16.30;;;5.03;;
75413;SDS011;64758;52.122;5.404;2024-03-23T02:59:54;14.80;;;5.03;;
75413;SDS011;64758;52.122;5.404;2024-03-23T03:02:20;15.02;;;5.25;;
75413;SDS011;64758;52.122;5.404;2024-03-23T03:04:46;16.15;;;4.90;;
75413;SDS011;64758;52.122;5.404;2024-03-23T03:07:13;14.15;;;4.88;;
75413;SDS011;64758;52.122;5.404;2024-03-23T03:09:39;14.10;;;5.03;;
75413;SDS011;64758;52.122;5.404;2024-03-23T03:12:05;11.30;;;4.72;;
75413;SDS011;64758;52.122;5.404;2024-03-23T03:14:31;16.92;;;5.10;;
75413;SDS011;64758;52.122;5.404;2024-03-23T03:16:57;11.33;;;4.73;;
75413;SDS011;64758;52.122;5.404;2024-03-23T03:19:23;17.00;;;4.40;;
75413;SDS011;64758;52.122;5.404;2024-03-23T03:21:48;17.67;;;4.77;;
75413;SDS011;64758;52.122;5.404;2024-03-23T03:24:14;12.63;;;4.43;;
75413;SDS011;64758;52.122;5.404;2024-03-23T03:26:40;13.95;;;4.65;;
75413;SDS011;64758;52.122;5.404;2024-03-23T03:29:06;16.87;;;3.87;;
75413;SDS011;64758;52.122;5.404;2024-03-23T03:31:32;12.43;;;4.00;;
75413;SDS011;64758;52.122;5.404;2024-03-23T03:33:57;14.02;;;4.15;;
75413;SDS011;64758;52.122;5.404;2024-03-23T03:36:23;15.27;;;3.93;;
75413;SDS011;64758;52.122;5.404;2024-03-23T03:38:48;11.95;;;4.22;;
75413;SDS011;64758;52.122;5.404;2024-03-23T03:41:14;13.43;;;4.53;;
75413;SDS011;64758;52.122;5.404;2024-03-23T03:43:39;17.83;;;4.50;;
75413;SDS011;64758;52.122;5.404;2024-03-23T03:46:05;9.63;;;3.58;;
75413;SDS011;64758;52.122;5.404;2024-03-23T03:48:33;12.43;;;4.10;;
75413;SDS011;64758;52.122;5.404;2024-03-23T03:50:59;9.30;;;4.07;;
75413;SDS011;64758;52.122;5.404;2024-03-23T03:53:25;14.82;;;3.42;;
75413;SDS011;64758;52.122;5.404;2024-03-23T03:55:51;7.72;;;2.97;;
75413;SDS011;64758;52.122;5.404;2024-03-23T03:58:17;6.73;;;2.83;;
75413;SDS011;64758;52.122;5.404;2024-03-23T04:00:44;8.43;;;3.25;;
75413;SDS011;64758;52.122;5.404;2024-03-23T04:03:09;9.53;;;2.80;;
75413;SDS011;64758;52.122;5.404;2024-03-23T04:05:35;9.75;;;3.70;;
75413;SDS011;64758;52.122;5.404;2024-03-23T04:08:00;9.53;;;3.57;;
75413;SDS011;64758;52.122;5.404;2024-03-23T04:10:26;11.20;;;3.97;;
75413;SDS011;64758;52.122;5.404;2024-03-23T04:12:52;18.50;;;4.10;;
75413;SDS011;64758;52.122;5.404;2024-03-23T04:15:19;8.00;;;3.42;;
75413;SDS011;64758;52.122;5.404;2024-03-23T04:17:45;9.60;;;4.13;;
75413;SDS011;64758;52.122;5.404;2024-03-23T04:20:11;8.07;;;3.67;;
75413;SDS011;64758;52.122;5.404;2024-03-23T04:22:39;9.02;;;3.38;;
75413;SDS011;64758;52.122;5.404;2024-03-23T04:25:05;10.82;;;4.03;;
75413;SDS011;64758;52.122;5.404;2024-03-23T04:27:36;12.90;;;3.30;;
75413;SDS011;64758;52.122;5.404;2024-03-23T04:30:05;6.38;;;3.33;;
75413;SDS011;64758;52.122;5.404;2024-03-23T04:32:39;9.10;;;3.50;;
75413;SDS011;64758;52.122;5.404;2024-03-23T04:35:05;8.07;;;3.50;;
75413;SDS011;64758;52.122;5.404;2024-03-23T04:37:32;7.85;;;3.35;;
75413;SDS011;64758;52.122;5.404;2024-03-23T04:39:59;6.33;;;2.80;;
75413;SDS011;64758;52.122;5.404;2024-03-23T04:42:25;5.63;;;2.55;;
75413;SDS011;64758;52.122;5.404;2024-03-23T04:44:51;10.70;;;3.53;;
75413;SDS011;64758;52.122;5.404;2024-03-23T04:47:16;10.18;;;3.60;;
75413;SDS011;64758;52.122;5.404;2024-03-23T04:49:42;8.33;;;3.07;;
75413;SDS011;64758;52.122;5.404;2024-03-23T04:52:07;7.37;;;3.13;;
75413;SDS011;64758;52.122;5.404;2024-03-23T04:54:33;13.68;;;3.42;;
75413;SDS011;64758;52.122;5.404;2024-03-23T04:56:59;6.87;;;2.83;;
75413;SDS011;64758;52.122;5.404;2024-03-23T04:59:25;9.18;;;2.72;;
75413;SDS011;64758;52.122;5.404;2024-03-23T05:01:50;8.60;;;3.07;;
75413;SDS011;64758;52.122;5.404;2024-03-23T05:04:16;9.38;;;2.92;;
75413;SDS011;64758;52.122;5.404;2024-03-23T05:06:42;5.53;;;2.37;;
75413;SDS011;64758;52.122;5.404;2024-03-23T05:09:07;11.60;;;2.53;;
75413;SDS011;64758;52.122;5.404;2024-03-23T05:11:37;6.55;;;1.98;;
75413;SDS011;64758;52.122;5.404;2024-03-23T05:14:03;14.52;;;2.13;;
75413;SDS011;64758;52.122;5.404;2024-03-23T05:16:29;8.70;;;1.80;;
75413;SDS011;64758;52.122;5.404;2024-03-23T05:18:55;6.90;;;1.70;;
75413;SDS011;64758;52.122;5.404;2024-03-23T05:21:20;10.30;;;2.57;;
75413;SDS011;64758;52.122;5.404;2024-03-23T05:23:46;11.55;;;2.15;;
75413;SDS011;64758;52.122;5.404;2024-03-23T05:26:13;11.35;;;2.92;;
75413;SDS011;64758;52.122;5.404;2024-03-23T05:28:39;7.10;;;1.80;;
75413;SDS011;64758;52.122;5.404;2024-03-23T05:31:04;13.57;;;2.07;;
75413;SDS011;64758;52.122;5.404;2024-03-23T05:33:30;7.72;;;1.67;;
75413;SDS011;64758;52.122;5.404;2024-03-23T05:35:56;8.73;;;2.00;;
75413;SDS011;64758;52.122;5.404;2024-03-23T05:38:22;12.57;;;2.15;;
75413;SDS011;64758;52.122;5.404;2024-03-23T05:40:55;10.48;;;1.95;;
75413;SDS011;64758;52.122;5.404;2024-03-23T05:43:21;11.40;;;1.75;;
75413;SDS011;64758;52.122;5.404;2024-03-23T05:45:57;5.22;;;1.65;;
75413;SDS011;64758;52.122;5.404;2024-03-23T05:48:23;6.97;;;1.30;;
75413;SDS011;64758;52.122;5.404;2024-03-23T05:50:50;8.63;;;2.15;;
75413;SDS011;64758;52.122;5.404;2024-03-23T05:53:16;7.03;;;1.60;;
75413;SDS011;64758;52.122;5.404;2024-03-23T05:55:42;4.13;;;1.40;;
75413;SDS011;64758;52.122;5.404;2024-03-23T05:58:08;9.43;;;1.48;;
75413;SDS011;64758;52.122;5.404;2024-03-23T06:00:34;5.47;;;1.23;;
75413;SDS011;64758;52.122;5.404;2024-03-23T06:03:00;9.13;;;1.53;;
75413;SDS011;64758;52.122;5.404;2024-03-23T06:05:26;11.77;;;1.35;;
75413;SDS011;64758;52.122;5.404;2024-03-23T06:07:52;8.40;;;1.17;;
75413;SDS011;64758;52.122;5.404;2024-03-23T06:10:18;8.57;;;0.93;;
75413;SDS011;64758;52.122;5.404;2024-03-23T06:12:45;10.18;;;0.90;;
75413;SDS011;64758;52.122;5.404;2024-03-23T06:15:11;6.45;;;0.80;;
75413;SDS011;64758;52.122;5.404;2024-03-23T06:17:37;6.03;;;1.10;;
75413;SDS011;64758;52.122;5.404;2024-03-23T06:20:03;7.47;;;0.98;;
75413;SDS011;64758;52.122;5.404;2024-03-23T06:22:31;6.18;;;1.02;;
75413;SDS011;64758;52.122;5.404;2024-03-23T06:24:57;5.32;;;1.40;;
75413;SDS011;64758;52.122;5.404;2024-03-23T06:27:23;5.93;;;0.67;;
75413;SDS011;64758;52.122;5.404;2024-03-23T06:29:48;5.57;;;0.70;;
75413;SDS011;64758;52.122;5.404;2024-03-23T06:32:14;3.73;;;0.77;;
75413;SDS011;64758;52.122;5.404;2024-03-23T06:34:43;3.87;;;0.80;;
75413;SDS011;64758;52.122;5.404;2024-03-23T06:37:08;8.90;;;1.27;;
75413;SDS011;64758;52.122;5.404;2024-03-23T06:39:35;8.35;;;0.70;;
75413;SDS011;64758;52.122;5.404;2024-03-23T06:42:02;7.05;;;0.60;;
75413;SDS011;64758;52.122;5.404;2024-03-23T06:44:28;5.83;;;0.93;;
75413;SDS011;64758;52.122;5.404;2024-03-23T06:46:54;3.55;;;0.65;;
75413;SDS011;64758;52.122;5.404;2024-03-23T06:49:20;4.20;;;0.60;;
75413;SDS011;64758;52.122;5.404;2024-03-23T06:51:46;4.78;;;0.90;;
75413;SDS011;64758;52.122;5.404;2024-03-23T06:54:11;5.97;;;1.02;;
75413;SDS011;64758;52.122;5.404;2024-03-23T06:56:37;8.70;;;0.95;;
75413;SDS011;64758;52.122;5.404;2024-03-23T06:59:03;5.67;;;0.70;;
75413;SDS011;64758;52.122;5.404;2024-03-23T07:01:29;7.80;;;1.25;;
75413;SDS011;64758;52.122;5.404;2024-03-23T07:03:54;6.40;;;0.53;;
75413;SDS011;64758;52.122;5.404;2024-03-23T07:06:21;11.88;;;1.27;;
75413;SDS011;64758;52.122;5.404;2024-03-23T07:08:46;10.60;;;1.30;;
75413;SDS011;64758;52.122;5.404;2024-03-23T07:11:16;9.43;;;1.70;;
75413;SDS011;64758;52.122;5.404;2024-03-23T07:13:44;11.88;;;1.58;;
75413;SDS011;64758;52.122;5.404;2024-03-23T07:16:09;9.00;;;1.17;;
75413;SDS011;64758;52.122;5.404;2024-03-23T07:18:35;9.07;;;1.50;;
75413;SDS011;64758;52.122;5.404;2024-03-23T07:21:00;8.40;;;1.10;;
75413;SDS011;64758;52.122;5.404;2024-03-23T07:23:26;7.43;;;1.20;;
75413;SDS011;64758;52.122;5.404;2024-03-23T07:28:24;5.67;;;1.43;;
75413;SDS011;64758;52.122;5.404;2024-03-23T07:31:05;10.75;;;1.40;;
75413;SDS011;64758;52.122;5.404;2024-03-23T07:33:36;6.63;;;1.00;;
75413;SDS011;64758;52.122;5.404;2024-03-23T07:36:03;7.18;;;1.48;;
75413;SDS011;64758;52.122;5.404;2024-03-23T07:38:29;6.00;;;1.13;;
75413;SDS011;64758;52.122;5.404;2024-03-23T07:41:11;6.93;;;1.17;;
75413;SDS011;64758;52.122;5.404;2024-03-23T07:43:38;5.82;;;1.15;;
75413;SDS011;64758;52.122;5.404;2024-03-23T07:46:04;7.20;;;2.03;;
75413;SDS011;64758;52.122;5.404;2024-03-23T07:48:30;10.32;;;2.38;;
75413;SDS011;64758;52.122;5.404;2024-03-23T07:53:26;11.05;;;2.10;;
75413;SDS011;64758;52.122;5.404;2024-03-23T07:55:57;5.60;;;1.25;;
75413;SDS011;64758;52.122;5.404;2024-03-23T07:58:41;4.43;;;1.10;;
75413;SDS011;64758;52.122;5.404;2024-03-23T08:01:12;6.13;;;0.95;;
75413;SDS011;64758;52.122;5.404;2024-03-23T08:03:40;6.85;;;1.90;;
75413;SDS011;64758;52.122;5.404;2024-03-23T08:06:10;3.08;;;0.80;;
75413;SDS011;64758;52.122;5.404;2024-03-23T08:08:37;5.97;;;1.05;;
75413;SDS011;64758;52.122;5.404;2024-03-23T08:11:03;7.53;;;1.08;;
75413;SDS011;64758;52.122;5.404;2024-03-23T08:13:29;5.07;;;1.10;;
75413;SDS011;64758;52.122;5.404;2024-03-23T08:15:56;5.88;;;1.10;;
75413;SDS011;64758;52.122;5.404;2024-03-23T08:18:25;7.00;;;0.82;;
75413;SDS011;64758;52.122;5.404;2024-03-23T08:21:01;5.73;;;0.87;;
75413;SDS011;64758;52.122;5.404;2024-03-23T08:23:28;6.72;;;0.98;;
75413;SDS011;64758;52.122;5.404;2024-03-23T08:25:59;5.07;;;1.15;;
75413;SDS011;64758;52.122;5.404;2024-03-23T08:28:28;6.35;;;1.10;;
75413;SDS011;64758;52.122;5.404;2024-03-23T08:30:54;7.47;;;0.90;;
75413;SDS011;64758;52.122;5.404;2024-03-23T08:33:20;9.52;;;1.23;;
75413;SDS011;64758;52.122;5.404;2024-03-23T08:35:55;9.40;;;0.77;;
75413;SDS011;64758;52.122;5.404;2024-03-23T08:38:22;6.53;;;1.05;;
75413;SDS011;64758;52.122;5.404;2024-03-23T08:43:32;5.22;;;0.60;;
75413;SDS011;64758;52.122;5.404;2024-03-23T08:46:05;2.92;;;0.52;;
75413;SDS011;64758;52.122;5.404;2024-03-23T08:48:31;5.70;;;0.85;;
75413;SDS011;64758;52.122;5.404;2024-03-23T08:53:27;6.72;;;0.65;;
75413;SDS011;64758;52.122;5.404;2024-03-23T08:55:55;4.90;;;0.50;;
75413;SDS011;64758;52.122;5.404;2024-03-23T08:58:22;7.38;;;0.82;;
75413;SDS011;64758;52.122;5.404;2024-03-23T09:00:49;7.20;;;0.73;;
75413;SDS011;64758;52.122;5.404;2024-03-23T09:03:18;4.83;;;0.70;;
75413;SDS011;64758;52.122;5.404;2024-03-23T09:05:44;5.40;;;0.70;;
75413;SDS011;64758;52.122;5.404;2024-03-23T09:08:09;6.63;;;0.47;;
75413;SDS011;64758;52.122;5.404;2024-03-23T09:10:39;5.55;;;0.45;;
75413;SDS011;64758;52.122;5.404;2024-03-23T09:13:05;6.15;;;0.88;;
75413;SDS011;64758;52.122;5.404;2024-03-23T09:15:32;5.37;;;0.43;;
75413;SDS011;64758;52.122;5.404;2024-03-23T09:18:02;6.43;;;0.70;;
75413;SDS011;64758;52.122;5.404;2024-03-23T09:20:28;4.05;;;0.57;;
75413;SDS011;64758;52.122;5.404;2024-03-23T09:22:54;4.20;;;0.50;;
75413;SDS011;64758;52.122;5.404;2024-03-23T09:25:19;10.73;;;0.90;;
75413;SDS011;64758;52.122;5.404;2024-03-23T09:27:46;6.25;;;0.52;;
75413;SDS011;64758;52.122;5.404;2024-03-23T09:30:12;5.13;;;0.40;;
75413;SDS011;64758;52.122;5.404;2024-03-23T09:32:39;4.07;;;0.40;;
75413;SDS011;64758;52.122;5.404;2024-03-23T09:35:06;4.10;;;0.38;;
75413;SDS011;64758;52.122;5.404;2024-03-23T09:37:32;5.88;;;0.43;;
75413;SDS011;64758;52.122;5.404;2024-03-23T09:39:58;5.53;;;0.40;;
75413;SDS011;64758;52.122;5.404;2024-03-23T09:42:23;5.10;;;0.40;;
75413;SDS011;64758;52.122;5.404;2024-03-23T09:44:51;7.20;;;0.95;;
75413;SDS011;64758;52.122;5.404;2024-03-23T09:47:17;2.03;;;0.55;;
75413;SDS011;64758;52.122;5.404;2024-03-23T09:49:43;3.38;;;0.50;;
75413;SDS011;64758;52.122;5.404;2024-03-23T09:52:09;4.70;;;0.32;;
75413;SDS011;64758;52.122;5.404;2024-03-23T09:54:36;2.63;;;0.20;;
75413;SDS011;64758;52.122;5.404;2024-03-23T09:57:01;4.30;;;0.80;;
75413;SDS011;64758;52.122;5.404;2024-03-23T09:59:29;6.35;;;0.73;;
75413;SDS011;64758;52.122;5.404;2024-03-23T10:01:54;4.60;;;0.50;;
75413;SDS011;64758;52.122;5.404;2024-03-23T10:04:40;5.25;;;0.45;;
75413;SDS011;64758;52.122;5.404;2024-03-23T10:07:18;4.85;;;0.77;;
75413;SDS011;64758;52.122;5.404;2024-03-23T10:09:45;6.38;;;0.77;;
75413;SDS011;64758;52.122;5.404;2024-03-23T10:12:12;7.32;;;1.02;;
75413;SDS011;64758;52.122;5.404;2024-03-23T10:14:40;5.37;;;0.80;;
75413;SDS011;64758;52.122;5.404;2024-03-23T10:17:14;7.32;;;0.50;;
75413;SDS011;64758;52.122;5.404;2024-03-23T10:19:50;5.68;;;0.40;;
75413;SDS011;64758;52.122;5.404;2024-03-23T10:22:22;5.03;;;0.98;;
75413;SDS011;64758;52.122;5.404;2024-03-23T10:24:49;5.13;;;0.57;;
75413;SDS011;64758;52.122;5.404;2024-03-23T10:27:16;3.87;;;0.60;;
75413;SDS011;64758;52.122;5.404;2024-03-23T10:29:44;4.63;;;0.70;;
75413;SDS011;64758;52.122;5.404;2024-03-23T10:32:11;11.52;;;1.27;;
75413;SDS011;64758;52.122;5.404;2024-03-23T10:34:38;4.20;;;0.60;;
75413;SDS011;64758;52.122;5.404;2024-03-23T10:37:04;6.40;;;0.60;;
75413;SDS011;64758;52.122;5.404;2024-03-23T10:39:34;5.27;;;0.57;;
75413;SDS011;64758;52.122;5.404;2024-03-23T10:42:04;7.43;;;0.50;;
75413;SDS011;64758;52.122;5.404;2024-03-23T10:44:31;6.60;;;0.68;;
75413;SDS011;64758;52.122;5.404;2024-03-23T10:46:58;6.72;;;0.80;;
75413;SDS011;64758;52.122;5.404;2024-03-23T10:49:31;12.63;;;0.70;;
75413;SDS011;64758;52.122;5.404;2024-03-23T10:51:58;6.97;;;0.40;;
75413;SDS011;64758;52.122;5.404;2024-03-23T10:54:28;6.40;;;0.55;;
75413;SDS011;64758;52.122;5.404;2024-03-23T10:59:31;4.38;;;0.40;;
75413;SDS011;64758;52.122;5.404;2024-03-23T11:01:58;5.15;;;0.68;;
75413;SDS011;64758;52.122;5.404;2024-03-23T11:04:31;4.17;;;0.50;;
75413;SDS011;64758;52.122;5.404;2024-03-23T11:07:52;2.88;;;0.30;;
75413;SDS011;64758;52.122;5.404;2024-03-23T11:09:53;5.88;;;0.40;;
75413;SDS011;64758;52.122;5.404;2024-03-23T11:14:59;4.03;;;0.50;;
75413;SDS011;64758;52.122;5.404;2024-03-23T11:17:27;4.03;;;0.70;;
75413;SDS011;64758;52.122;5.404;2024-03-23T11:19:54;3.35;;;0.73;;
75413;SDS011;64758;52.122;5.404;2024-03-23T11:22:39;8.10;;;0.57;;
75413;SDS011;64758;52.122;5.404;2024-03-23T11:25:13;7.60;;;0.75;;
75413;SDS011;64758;52.122;5.404;2024-03-23T11:27:39;4.47;;;0.60;;
75413;SDS011;64758;52.122;5.404;2024-03-23T11:32:57;6.30;;;0.50;;
75413;SDS011;64758;52.122;5.404;2024-03-23T11:35:26;5.82;;;0.57;;
75413;SDS011;64758;52.122;5.404;2024-03-23T11:38:11;4.60;;;0.70;;
75413;SDS011;64758;52.122;5.404;2024-03-23T11:40:37;8.80;;;0.80;;
75413;SDS011;64758;52.122;5.404;2024-03-23T11:43:17;5.47;;;0.73;;
75413;SDS011;64758;52.122;5.404;2024-03-23T11:45:51;9.63;;;1.13;;
75413;SDS011;64758;52.122;5.404;2024-03-23T11:48:19;5.80;;;0.95;;
75413;SDS011;64758;52.122;5.404;2024-03-23T11:50:46;7.03;;;0.53;;
75413;SDS011;64758;52.122;5.404;2024-03-23T11:53:23;4.03;;;0.50;;
75413;SDS011;64758;52.122;5.404;2024-03-23T11:55:54;6.78;;;0.60;;
75413;SDS011;64758;52.122;5.404;2024-03-23T11:58:21;9.35;;;0.60;;
75413;SDS011;64758;52.122;5.404;2024-03-23T12:00:52;4.40;;;0.38;;
75413;SDS011;64758;52.122;5.404;2024-03-23T12:03:22;3.67;;;0.70;;
75413;SDS011;64758;52.122;5.404;2024-03-23T12:05:53;4.40;;;0.60;;
75413;SDS011;64758;52.122;5.404;2024-03-23T12:08:21;9.13;;;0.80;;
75413;SDS011;64758;52.122;5.404;2024-03-23T12:10:49;4.97;;;0.80;;
75413;SDS011;64758;52.122;5.404;2024-03-23T12:13:22;5.57;;;0.50;;
75413;SDS011;64758;52.122;5.404;2024-03-23T12:15:50;5.40;;;0.50;;
75413;SDS011;64758;52.122;5.404;2024-03-23T12:18:16;5.00;;;0.80;;
75413;SDS011;64758;52.122;5.404;2024-03-23T12:20:42;6.68;;;0.90;;
75413;SDS011;64758;52.122;5.404;2024-03-23T12:23:09;9.57;;;0.95;;
75413;SDS011;64758;52.122;5.404;2024-03-23T12:25:37;3.57;;;0.70;;
75413;SDS011;64758;52.122;5.404;2024-03-23T12:28:06;8.88;;;0.90;;
75413;SDS011;64758;52.122;5.404;2024-03-23T12:30:39;6.32;;;0.68;;
75413;SDS011;64758;52.122;5.404;2024-03-23T12:33:05;7.50;;;1.08;;
75413;SDS011;64758;52.122;5.404;2024-03-23T12:35:31;7.70;;;0.70;;
75413;SDS011;64758;52.122;5.404;2024-03-23T12:37:57;4.05;;;0.40;;
75413;SDS011;64758;52.122;5.404;2024-03-23T12:40:23;3.70;;;0.45;;
75413;SDS011;64758;52.122;5.404;2024-03-23T12:42:49;3.35;;;0.30;;
75413;SDS011;64758;52.122;5.404;2024-03-23T12:45:14;2.93;;;0.30;;
75413;SDS011;64758;52.122;5.404;2024-03-23T12:47:40;6.22;;;0.70;;
75413;SDS011;64758;52.122;5.404;2024-03-23T12:50:06;5.87;;;0.60;;
75413;SDS011;64758;52.122;5.404;2024-03-23T12:52:32;8.32;;;0.60;;
75413;SDS011;64758;52.122;5.404;2024-03-23T12:54:58;7.85;;;0.50;;
75413;SDS011;64758;52.122;5.404;2024-03-23T12:57:24;4.90;;;0.60;;
75413;SDS011;64758;52.122;5.404;2024-03-23T12:59:51;4.83;;;0.57;;
75413;SDS011;64758;52.122;5.404;2024-03-23T13:02:21;6.13;;;0.47;;
75413;SDS011;64758;52.122;5.404;2024-03-23T13:04:49;5.25;;;0.70;;
75413;SDS011;64758;52.122;5.404;2024-03-23T13:07:15;4.70;;;0.60;;
75413;SDS011;64758;52.122;5.404;2024-03-23T13:09:41;2.88;;;0.40;;
75413;SDS011;64758;52.122;5.404;2024-03-23T13:12:07;7.37;;;0.60;;
75413;SDS011;64758;52.122;5.404;2024-03-23T13:14:33;7.57;;;0.40;;
75413;SDS011;64758;52.122;5.404;2024-03-23T13:16:59;5.93;;;0.40;;
75413;SDS011;64758;52.122;5.404;2024-03-23T13:19:24;6.00;;;0.77;;
75413;SDS011;64758;52.122;5.404;2024-03-23T13:21:56;6.18;;;0.57;;
75413;SDS011;64758;52.122;5.404;2024-03-23T13:24:23;3.47;;;0.43;;
75413;SDS011;64758;52.122;5.404;2024-03-23T13:26:50;3.97;;;0.38;;
75413;SDS011;64758;52.122;5.404;2024-03-23T13:29:16;1.75;;;0.20;;
75413;SDS011;64758;52.122;5.404;2024-03-23T13:31:42;1.50;;;0.13;;
75413;SDS011;64758;52.122;5.404;2024-03-23T13:34:08;1.80;;;0.10;;
75413;SDS011;64758;52.122;5.404;2024-03-23T13:36:34;1.77;;;0.20;;
75413;SDS011;64758;52.122;5.404;2024-03-23T13:39:01;2.17;;;0.10;;
75413;SDS011;64758;52.122;5.404;2024-03-23T13:41:31;1.20;;;0.20;;
75413;SDS011;64758;52.122;5.404;2024-03-23T13:43:57;2.90;;;0.10;;
75413;SDS011;64758;52.122;5.404;2024-03-23T13:46:22;1.37;;;0.20;;
75413;SDS011;64758;52.122;5.404;2024-03-23T13:48:48;2.80;;;0.22;;
75413;SDS011;64758;52.122;5.404;2024-03-23T13:51:14;1.63;;;0.20;;
75413;SDS011;64758;52.122;5.404;2024-03-23T13:53:39;3.83;;;0.35;;
75413;SDS011;64758;52.122;5.404;2024-03-23T13:56:05;3.83;;;0.40;;
75413;SDS011;64758;52.122;5.404;2024-03-23T13:58:31;2.67;;;0.30;;
75413;SDS011;64758;52.122;5.404;2024-03-23T14:00:57;6.40;;;0.60;;
75413;SDS011;64758;52.122;5.404;2024-03-23T14:03:23;5.07;;;0.50;;
75413;SDS011;64758;52.122;5.404;2024-03-23T14:05:48;7.07;;;0.57;;
75413;SDS011;64758;52.122;5.404;2024-03-23T14:08:14;6.93;;;0.50;;
75413;SDS011;64758;52.122;5.404;2024-03-23T14:10:40;5.13;;;0.60;;
75413;SDS011;64758;52.122;5.404;2024-03-23T14:13:07;5.00;;;0.43;;
75413;SDS011;64758;52.122;5.404;2024-03-23T14:15:33;7.32;;;0.55;;
75413;SDS011;64758;52.122;5.404;2024-03-23T14:17:58;5.70;;;0.70;;
75413;SDS011;64758;52.122;5.404;2024-03-23T14:20:24;2.90;;;0.43;;
75413;SDS011;64758;52.122;5.404;2024-03-23T14:22:53;3.55;;;0.60;;
75413;SDS011;64758;52.122;5.404;2024-03-23T14:25:19;2.87;;;0.37;;
75413;SDS011;64758;52.122;5.404;2024-03-23T14:27:45;3.92;;;0.38;;
75413;SDS011;64758;52.122;5.404;2024-03-23T14:30:12;4.65;;;0.55;;
75413;SDS011;64758;52.122;5.404;2024-03-23T14:32:39;6.60;;;0.70;;
75413;SDS011;64758;52.122;5.404;2024-03-23T14:35:05;6.40;;;0.40;;
75413;SDS011;64758;52.122;5.404;2024-03-23T14:37:38;2.97;;;0.57;;
75413;SDS011;64758;52.122;5.404;2024-03-23T14:40:07;5.50;;;0.55;;
75413;SDS011;64758;52.122;5.404;2024-03-23T14:42:33;5.10;;;1.17;;
75413;SDS011;64758;52.122;5.404;2024-03-23T14:44:59;5.67;;;0.53;;
75413;SDS011;64758;52.122;5.404;2024-03-23T14:47:24;4.88;;;0.40;;
75413;SDS011;64758;52.122;5.404;2024-03-23T14:49:50;4.43;;;0.60;;
75413;SDS011;64758;52.122;5.404;2024-03-23T14:52:19;4.20;;;0.47;;
75413;SDS011;64758;52.122;5.404;2024-03-23T14:54:45;3.55;;;0.32;;
75413;SDS011;64758;52.122;5.404;2024-03-23T14:57:11;4.55;;;0.40;;
75413;SDS011;64758;52.122;5.404;2024-03-23T14:59:37;3.87;;;0.40;;
75413;SDS011;64758;52.122;5.404;2024-03-23T15:02:09;1.67;;;0.30;;
75413;SDS011;64758;52.122;5.404;2024-03-23T15:04:35;2.00;;;0.57;;
75413;SDS011;64758;52.122;5.404;2024-03-23T15:07:01;3.70;;;0.60;;
75413;SDS011;64758;52.122;5.404;2024-03-23T15:09:27;3.78;;;0.70;;
75413;SDS011;64758;52.122;5.404;2024-03-23T15:11:53;5.00;;;0.60;;
75413;SDS011;64758;52.122;5.404;2024-03-23T15:14:21;4.75;;;0.68;;
75413;SDS011;64758;52.122;5.404;2024-03-23T15:16:46;3.40;;;0.47;;
75413;SDS011;64758;52.122;5.404;2024-03-23T15:19:14;3.67;;;0.60;;
75413;SDS011;64758;52.122;5.404;2024-03-23T15:21:40;2.78;;;1.25;;
75413;SDS011;64758;52.122;5.404;2024-03-23T15:24:06;1.53;;;0.37;;
75413;SDS011;64758;52.122;5.404;2024-03-23T15:26:32;2.65;;;0.50;;
75413;SDS011;64758;52.122;5.404;2024-03-23T15:28:58;5.32;;;0.57;;
75413;SDS011;64758;52.122;5.404;2024-03-23T15:31:23;1.80;;;0.37;;
75413;SDS011;64758;52.122;5.404;2024-03-23T15:33:50;3.83;;;0.40;;
75413;SDS011;64758;52.122;5.404;2024-03-23T15:36:16;1.85;;;0.50;;
75413;SDS011;64758;52.122;5.404;2024-03-23T15:38:42;2.95;;;0.50;;
75413;SDS011;64758;52.122;5.404;2024-03-23T15:41:08;2.93;;;0.40;;
75413;SDS011;64758;52.122;5.404;2024-03-23T15:43:34;3.75;;;0.50;;
75413;SDS011;64758;52.122;5.404;2024-03-23T15:46:00;4.63;;;0.43;;
75413;SDS011;64758;52.122;5.404;2024-03-23T15:48:27;2.20;;;0.63;;
75413;SDS011;64758;52.122;5.404;2024-03-23T15:50:54;3.03;;;0.40;;
75413;SDS011;64758;52.122;5.404;2024-03-23T15:53:21;4.43;;;0.50;;
75413;SDS011;64758;52.122;5.404;2024-03-23T15:55:57;7.25;;;0.77;;